sensor_id;sensor_type;location;lat;lon;timestamp;P1;durP1;ratioP1;P2;durP2;ratioP2
81137;SDS011;70623;50.886;3.892;2023-12-14T00:00:32;155.95;;;36.03;;
81137;SDS011;70623;50.886;3.892;2023-12-14T00:02:58;174.10;;;38.50;;
81137;SDS011;70623;50.886;3.892;2023-12-14T00:05:24;165.18;;;42.30;;
81137;SDS011;70623;50.886;3.892;2023-12-14T00:07:49;167.95;;;39.05;;
81137;SDS011;70623;50.886;3.892;2023-12-14T00:10:15;141.73;;;34.45;;
81137;SDS011;70623;50.886;3.892;2023-12-14T00:12:43;177.48;;;40.20;;
81137;SDS011;70623;50.886;3.892;2023-12-14T00:15:09;163.93;;;38.00;;
81137;SDS011;70623;50.886;3.892;2023-12-14T00:17:35;164.63;;;39.28;;
81137;SDS011;70623;50.886;3.892;2023-12-14T00:20:02;152.15;;;37.65;;
81137;SDS011;70623;50.886;3.892;2023-12-14T00:22:29;158.60;;;37.95;;
81137;SDS011;70623;50.886;3.892;2023-12-14T00:24:57;167.43;;;38.25;;
81137;SDS011;70623;50.886;3.892;2023-12-14T00:27:22;147.30;;;35.78;;
81137;SDS011;70623;50.886;3.892;2023-12-14T00:29:48;148.95;;;36.85;;
81137;SDS011;70623;50.886;3.892;2023-12-14T00:32:16;143.50;;;35.15;;
81137;SDS011;70623;50.886;3.892;2023-12-14T00:34:42;148.35;;;38.25;;
81137;SDS011;70623;50.886;3.892;2023-12-14T00:37:07;126.70;;;31.67;;
81137;SDS011;70623;50.886;3.892;2023-12-14T00:39:33;121.13;;;33.13;;
81137;SDS011;70623;50.886;3.892;2023-12-14T00:41:59;118.78;;;33.80;;
81137;SDS011;70623;50.886;3.892;2023-12-14T00:44:24;110.78;;;33.90;;
81137;SDS011;70623;50.886;3.892;2023-12-14T00:46:50;119.07;;;32.33;;
81137;SDS011;70623;50.886;3.892;2023-12-14T00:49:16;113.38;;;33.83;;
81137;SDS011;70623;50.886;3.892;2023-12-14T00:51:43;123.93;;;32.78;;
81137;SDS011;70623;50.886;3.892;2023-12-14T00:54:08;117.75;;;31.58;;
81137;SDS011;70623;50.886;3.892;2023-12-14T00:56:34;114.90;;;31.42;;
81137;SDS011;70623;50.886;3.892;2023-12-14T00:59:00;125.63;;;34.30;;
81137;SDS011;70623;50.886;3.892;2023-12-14T01:01:25;111.47;;;32.20;;
81137;SDS011;70623;50.886;3.892;2023-12-14T01:03:51;126.88;;;36.33;;
81137;SDS011;70623;50.886;3.892;2023-12-14T01:06:17;114.80;;;33.80;;
81137;SDS011;70623;50.886;3.892;2023-12-14T01:08:42;123.53;;;32.90;;
81137;SDS011;70623;50.886;3.892;2023-12-14T01:11:08;98.57;;;31.50;;
81137;SDS011;70623;50.886;3.892;2023-12-14T01:13:34;117.43;;;35.92;;
81137;SDS011;70623;50.886;3.892;2023-12-14T01:15:59;119.25;;;34.88;;
81137;SDS011;70623;50.886;3.892;2023-12-14T01:18:27;139.02;;;43.53;;
81137;SDS011;70623;50.886;3.892;2023-12-14T01:20:53;113.97;;;38.42;;
81137;SDS011;70623;50.886;3.892;2023-12-14T01:23:19;115.72;;;37.65;;
81137;SDS011;70623;50.886;3.892;2023-12-14T01:25:44;122.68;;;37.25;;
81137;SDS011;70623;50.886;3.892;2023-12-14T01:28:10;114.88;;;35.42;;
81137;SDS011;70623;50.886;3.892;2023-12-14T01:30:36;115.38;;;41.13;;
81137;SDS011;70623;50.886;3.892;2023-12-14T01:33:01;100.35;;;37.38;;
81137;SDS011;70623;50.886;3.892;2023-12-14T01:35:29;100.60;;;37.35;;
81137;SDS011;70623;50.886;3.892;2023-12-14T01:37:55;94.65;;;41.65;;
81137;SDS011;70623;50.886;3.892;2023-12-14T01:40:21;83.53;;;33.05;;
81137;SDS011;70623;50.886;3.892;2023-12-14T01:42:46;83.25;;;34.95;;
81137;SDS011;70623;50.886;3.892;2023-12-14T01:45:12;97.40;;;40.97;;
81137;SDS011;70623;50.886;3.892;2023-12-14T01:47:44;90.35;;;39.67;;
81137;SDS011;70623;50.886;3.892;2023-12-14T01:50:12;93.30;;;36.92;;
81137;SDS011;70623;50.886;3.892;2023-12-14T01:52:38;83.18;;;32.08;;
81137;SDS011;70623;50.886;3.892;2023-12-14T01:55:04;100.03;;;43.55;;
81137;SDS011;70623;50.886;3.892;2023-12-14T01:57:30;89.03;;;36.88;;
81137;SDS011;70623;50.886;3.892;2023-12-14T01:59:55;97.00;;;40.42;;
81137;SDS011;70623;50.886;3.892;2023-12-14T02:02:21;96.32;;;38.92;;
81137;SDS011;70623;50.886;3.892;2023-12-14T02:04:47;91.65;;;35.15;;
81137;SDS011;70623;50.886;3.892;2023-12-14T02:07:12;96.43;;;38.13;;
81137;SDS011;70623;50.886;3.892;2023-12-14T02:09:38;78.93;;;32.45;;
81137;SDS011;70623;50.886;3.892;2023-12-14T02:12:04;68.43;;;29.67;;
81137;SDS011;70623;50.886;3.892;2023-12-14T02:14:30;73.57;;;33.45;;
81137;SDS011;70623;50.886;3.892;2023-12-14T02:16:56;71.35;;;37.45;;
81137;SDS011;70623;50.886;3.892;2023-12-14T02:19:22;61.97;;;32.00;;
81137;SDS011;70623;50.886;3.892;2023-12-14T02:21:47;59.55;;;29.98;;
81137;SDS011;70623;50.886;3.892;2023-12-14T02:24:13;58.15;;;27.23;;
81137;SDS011;70623;50.886;3.892;2023-12-14T02:26:38;63.28;;;31.40;;
81137;SDS011;70623;50.886;3.892;2023-12-14T02:29:04;61.25;;;30.70;;
81137;SDS011;70623;50.886;3.892;2023-12-14T02:31:30;67.63;;;31.77;;
81137;SDS011;70623;50.886;3.892;2023-12-14T02:33:55;67.15;;;35.88;;
81137;SDS011;70623;50.886;3.892;2023-12-14T02:36:21;70.63;;;33.40;;
81137;SDS011;70623;50.886;3.892;2023-12-14T02:38:47;95.60;;;38.63;;
81137;SDS011;70623;50.886;3.892;2023-12-14T02:41:12;109.28;;;41.83;;
81137;SDS011;70623;50.886;3.892;2023-12-14T02:43:38;98.28;;;39.58;;
81137;SDS011;70623;50.886;3.892;2023-12-14T02:46:05;110.15;;;42.13;;
81137;SDS011;70623;50.886;3.892;2023-12-14T02:48:31;111.38;;;40.22;;
81137;SDS011;70623;50.886;3.892;2023-12-14T02:50:56;97.45;;;36.03;;
81137;SDS011;70623;50.886;3.892;2023-12-14T02:53:24;79.07;;;35.33;;
81137;SDS011;70623;50.886;3.892;2023-12-14T02:55:50;70.95;;;33.03;;
81137;SDS011;70623;50.886;3.892;2023-12-14T02:58:16;56.33;;;27.80;;
81137;SDS011;70623;50.886;3.892;2023-12-14T03:00:43;56.17;;;28.02;;
81137;SDS011;70623;50.886;3.892;2023-12-14T03:03:08;41.85;;;22.90;;
81137;SDS011;70623;50.886;3.892;2023-12-14T03:05:34;40.33;;;22.80;;
81137;SDS011;70623;50.886;3.892;2023-12-14T03:08:00;42.33;;;21.98;;
81137;SDS011;70623;50.886;3.892;2023-12-14T03:10:25;36.63;;;21.25;;
81137;SDS011;70623;50.886;3.892;2023-12-14T03:12:51;39.97;;;22.17;;
81137;SDS011;70623;50.886;3.892;2023-12-14T03:15:17;42.05;;;22.70;;
81137;SDS011;70623;50.886;3.892;2023-12-14T03:17:44;40.90;;;22.13;;
81137;SDS011;70623;50.886;3.892;2023-12-14T03:20:09;44.15;;;25.17;;
81137;SDS011;70623;50.886;3.892;2023-12-14T03:22:35;41.80;;;24.50;;
81137;SDS011;70623;50.886;3.892;2023-12-14T03:25:04;44.58;;;25.58;;
81137;SDS011;70623;50.886;3.892;2023-12-14T03:27:32;45.72;;;25.42;;
81137;SDS011;70623;50.886;3.892;2023-12-14T03:30:00;49.47;;;26.95;;
81137;SDS011;70623;50.886;3.892;2023-12-14T03:32:26;38.63;;;20.83;;
81137;SDS011;70623;50.886;3.892;2023-12-14T03:34:51;42.22;;;22.92;;
81137;SDS011;70623;50.886;3.892;2023-12-14T03:37:19;37.40;;;18.15;;
81137;SDS011;70623;50.886;3.892;2023-12-14T03:39:45;38.70;;;21.75;;
81137;SDS011;70623;50.886;3.892;2023-12-14T03:42:10;36.92;;;21.92;;
81137;SDS011;70623;50.886;3.892;2023-12-14T03:44:37;34.88;;;17.70;;
81137;SDS011;70623;50.886;3.892;2023-12-14T03:47:02;34.05;;;19.13;;
81137;SDS011;70623;50.886;3.892;2023-12-14T03:49:28;28.63;;;17.63;;
81137;SDS011;70623;50.886;3.892;2023-12-14T03:51:54;29.38;;;15.50;;
81137;SDS011;70623;50.886;3.892;2023-12-14T03:54:20;26.48;;;17.63;;
81137;SDS011;70623;50.886;3.892;2023-12-14T03:56:45;26.77;;;15.07;;
81137;SDS011;70623;50.886;3.892;2023-12-14T03:59:13;21.17;;;14.10;;
81137;SDS011;70623;50.886;3.892;2023-12-14T04:01:41;20.92;;;13.32;;
81137;SDS011;70623;50.886;3.892;2023-12-14T04:04:06;19.23;;;11.82;;
81137;SDS011;70623;50.886;3.892;2023-12-14T04:06:32;19.42;;;11.55;;
81137;SDS011;70623;50.886;3.892;2023-12-14T04:08:58;20.52;;;13.48;;
81137;SDS011;70623;50.886;3.892;2023-12-14T04:11:23;20.00;;;12.68;;
81137;SDS011;70623;50.886;3.892;2023-12-14T04:13:51;24.75;;;13.32;;
81137;SDS011;70623;50.886;3.892;2023-12-14T04:16:21;23.58;;;13.85;;
81137;SDS011;70623;50.886;3.892;2023-12-14T04:18:48;22.05;;;12.60;;
81137;SDS011;70623;50.886;3.892;2023-12-14T04:21:16;20.90;;;11.85;;
81137;SDS011;70623;50.886;3.892;2023-12-14T04:23:41;19.27;;;12.30;;
81137;SDS011;70623;50.886;3.892;2023-12-14T04:26:07;21.50;;;12.48;;
81137;SDS011;70623;50.886;3.892;2023-12-14T04:28:34;21.73;;;13.82;;
81137;SDS011;70623;50.886;3.892;2023-12-14T04:31:00;20.52;;;12.20;;
81137;SDS011;70623;50.886;3.892;2023-12-14T04:33:25;20.80;;;12.23;;
81137;SDS011;70623;50.886;3.892;2023-12-14T04:35:51;20.05;;;11.38;;
81137;SDS011;70623;50.886;3.892;2023-12-14T04:38:18;21.60;;;12.07;;
81137;SDS011;70623;50.886;3.892;2023-12-14T04:40:43;21.42;;;12.02;;
81137;SDS011;70623;50.886;3.892;2023-12-14T04:43:09;19.08;;;10.85;;
81137;SDS011;70623;50.886;3.892;2023-12-14T04:45:34;21.88;;;11.57;;
81137;SDS011;70623;50.886;3.892;2023-12-14T04:48:00;25.98;;;13.13;;
81137;SDS011;70623;50.886;3.892;2023-12-14T04:50:26;24.80;;;12.13;;
81137;SDS011;70623;50.886;3.892;2023-12-14T04:52:51;22.75;;;12.63;;
81137;SDS011;70623;50.886;3.892;2023-12-14T04:55:17;23.73;;;13.55;;
81137;SDS011;70623;50.886;3.892;2023-12-14T04:57:45;27.02;;;13.63;;
81137;SDS011;70623;50.886;3.892;2023-12-14T05:00:11;28.02;;;15.80;;
81137;SDS011;70623;50.886;3.892;2023-12-14T05:02:37;21.25;;;11.32;;
81137;SDS011;70623;50.886;3.892;2023-12-14T05:05:03;21.83;;;13.02;;
81137;SDS011;70623;50.886;3.892;2023-12-14T05:07:29;25.60;;;13.85;;
81137;SDS011;70623;50.886;3.892;2023-12-14T05:09:55;25.52;;;13.15;;
81137;SDS011;70623;50.886;3.892;2023-12-14T05:12:21;27.33;;;13.85;;
81137;SDS011;70623;50.886;3.892;2023-12-14T05:14:47;23.67;;;12.43;;
81137;SDS011;70623;50.886;3.892;2023-12-14T05:17:13;23.30;;;12.50;;
81137;SDS011;70623;50.886;3.892;2023-12-14T05:19:38;24.88;;;13.55;;
81137;SDS011;70623;50.886;3.892;2023-12-14T05:22:04;24.63;;;14.02;;
81137;SDS011;70623;50.886;3.892;2023-12-14T05:24:30;22.38;;;12.95;;
81137;SDS011;70623;50.886;3.892;2023-12-14T05:26:55;28.38;;;12.60;;
81137;SDS011;70623;50.886;3.892;2023-12-14T05:29:21;24.58;;;12.18;;
81137;SDS011;70623;50.886;3.892;2023-12-14T05:31:48;24.52;;;12.98;;
81137;SDS011;70623;50.886;3.892;2023-12-14T05:34:14;18.83;;;11.20;;
81137;SDS011;70623;50.886;3.892;2023-12-14T05:36:41;23.27;;;11.30;;
81137;SDS011;70623;50.886;3.892;2023-12-14T05:39:06;25.83;;;12.95;;
81137;SDS011;70623;50.886;3.892;2023-12-14T05:41:39;22.30;;;11.30;;
81137;SDS011;70623;50.886;3.892;2023-12-14T05:44:07;22.83;;;12.25;;
81137;SDS011;70623;50.886;3.892;2023-12-14T05:46:33;25.98;;;11.77;;
81137;SDS011;70623;50.886;3.892;2023-12-14T05:48:58;20.27;;;11.20;;
81137;SDS011;70623;50.886;3.892;2023-12-14T05:53:54;22.50;;;12.90;;
81137;SDS011;70623;50.886;3.892;2023-12-14T05:56:20;16.63;;;9.65;;
81137;SDS011;70623;50.886;3.892;2023-12-14T05:58:45;19.02;;;9.23;;
81137;SDS011;70623;50.886;3.892;2023-12-14T06:01:11;18.75;;;10.55;;
81137;SDS011;70623;50.886;3.892;2023-12-14T06:03:37;20.77;;;9.80;;
81137;SDS011;70623;50.886;3.892;2023-12-14T06:06:02;21.17;;;10.00;;
81137;SDS011;70623;50.886;3.892;2023-12-14T06:08:30;18.77;;;9.00;;
81137;SDS011;70623;50.886;3.892;2023-12-14T06:10:58;15.07;;;9.43;;
81137;SDS011;70623;50.886;3.892;2023-12-14T06:13:24;17.30;;;8.25;;
81137;SDS011;70623;50.886;3.892;2023-12-14T06:15:52;23.83;;;8.93;;
81137;SDS011;70623;50.886;3.892;2023-12-14T06:18:18;16.40;;;9.80;;
81137;SDS011;70623;50.886;3.892;2023-12-14T06:20:45;24.50;;;9.07;;
81137;SDS011;70623;50.886;3.892;2023-12-14T06:23:11;18.60;;;8.80;;
81137;SDS011;70623;50.886;3.892;2023-12-14T06:25:37;16.85;;;8.48;;
81137;SDS011;70623;50.886;3.892;2023-12-14T06:28:02;16.35;;;7.65;;
81137;SDS011;70623;50.886;3.892;2023-12-14T06:30:28;17.17;;;6.97;;
81137;SDS011;70623;50.886;3.892;2023-12-14T06:32:54;11.70;;;6.57;;
81137;SDS011;70623;50.886;3.892;2023-12-14T06:35:22;13.77;;;6.80;;
81137;SDS011;70623;50.886;3.892;2023-12-14T06:37:48;16.27;;;7.05;;
81137;SDS011;70623;50.886;3.892;2023-12-14T06:40:13;12.73;;;6.88;;
81137;SDS011;70623;50.886;3.892;2023-12-14T06:42:39;15.80;;;6.50;;
81137;SDS011;70623;50.886;3.892;2023-12-14T06:45:05;20.38;;;7.97;;
81137;SDS011;70623;50.886;3.892;2023-12-14T06:47:31;14.45;;;7.05;;
81137;SDS011;70623;50.886;3.892;2023-12-14T06:49:57;13.65;;;7.53;;
81137;SDS011;70623;50.886;3.892;2023-12-14T06:52:25;16.02;;;7.90;;
81137;SDS011;70623;50.886;3.892;2023-12-14T06:54:51;19.17;;;9.65;;
81137;SDS011;70623;50.886;3.892;2023-12-14T06:57:16;22.58;;;11.05;;
81137;SDS011;70623;50.886;3.892;2023-12-14T06:59:42;20.13;;;9.60;;
81137;SDS011;70623;50.886;3.892;2023-12-14T07:02:08;22.80;;;9.52;;
81137;SDS011;70623;50.886;3.892;2023-12-14T07:04:33;22.08;;;12.45;;
81137;SDS011;70623;50.886;3.892;2023-12-14T07:06:59;24.73;;;10.68;;
81137;SDS011;70623;50.886;3.892;2023-12-14T07:09:25;19.35;;;8.25;;
81137;SDS011;70623;50.886;3.892;2023-12-14T07:11:52;17.15;;;8.10;;
81137;SDS011;70623;50.886;3.892;2023-12-14T07:14:18;25.02;;;8.57;;
81137;SDS011;70623;50.886;3.892;2023-12-14T07:16:44;18.13;;;8.88;;
81137;SDS011;70623;50.886;3.892;2023-12-14T07:19:10;18.77;;;7.80;;
81137;SDS011;70623;50.886;3.892;2023-12-14T07:21:38;16.35;;;8.45;;
81137;SDS011;70623;50.886;3.892;2023-12-14T07:24:04;14.90;;;7.25;;
81137;SDS011;70623;50.886;3.892;2023-12-14T07:26:32;14.00;;;7.55;;
81137;SDS011;70623;50.886;3.892;2023-12-14T07:29:00;16.08;;;8.32;;
81137;SDS011;70623;50.886;3.892;2023-12-14T07:31:26;14.13;;;8.43;;
81137;SDS011;70623;50.886;3.892;2023-12-14T07:33:54;16.30;;;8.32;;
81137;SDS011;70623;50.886;3.892;2023-12-14T07:36:20;15.27;;;7.40;;
81137;SDS011;70623;50.886;3.892;2023-12-14T07:38:47;17.15;;;7.85;;
81137;SDS011;70623;50.886;3.892;2023-12-14T07:41:13;15.93;;;7.40;;
81137;SDS011;70623;50.886;3.892;2023-12-14T07:43:39;16.48;;;7.93;;
81137;SDS011;70623;50.886;3.892;2023-12-14T07:46:04;16.42;;;7.63;;
81137;SDS011;70623;50.886;3.892;2023-12-14T07:48:30;17.30;;;7.65;;
81137;SDS011;70623;50.886;3.892;2023-12-14T07:50:58;17.52;;;6.97;;
81137;SDS011;70623;50.886;3.892;2023-12-14T07:53:26;19.33;;;7.72;;
81137;SDS011;70623;50.886;3.892;2023-12-14T07:55:52;21.20;;;8.40;;
81137;SDS011;70623;50.886;3.892;2023-12-14T07:58:17;15.15;;;7.10;;
81137;SDS011;70623;50.886;3.892;2023-12-14T08:00:43;19.60;;;7.38;;
81137;SDS011;70623;50.886;3.892;2023-12-14T08:03:11;23.20;;;8.32;;
81137;SDS011;70623;50.886;3.892;2023-12-14T08:05:37;17.52;;;7.70;;
81137;SDS011;70623;50.886;3.892;2023-12-14T08:08:02;14.75;;;7.20;;
81137;SDS011;70623;50.886;3.892;2023-12-14T08:10:28;21.98;;;8.52;;
81137;SDS011;70623;50.886;3.892;2023-12-14T08:12:54;19.85;;;9.30;;
81137;SDS011;70623;50.886;3.892;2023-12-14T08:15:19;14.75;;;9.05;;
81137;SDS011;70623;50.886;3.892;2023-12-14T08:17:45;17.95;;;8.35;;
81137;SDS011;70623;50.886;3.892;2023-12-14T08:20:11;17.70;;;9.18;;
81137;SDS011;70623;50.886;3.892;2023-12-14T08:22:38;15.13;;;7.70;;
81137;SDS011;70623;50.886;3.892;2023-12-14T08:25:10;23.98;;;9.65;;
81137;SDS011;70623;50.886;3.892;2023-12-14T08:27:37;18.35;;;8.18;;
81137;SDS011;70623;50.886;3.892;2023-12-14T08:30:03;19.73;;;8.50;;
81137;SDS011;70623;50.886;3.892;2023-12-14T08:32:29;19.63;;;9.48;;
81137;SDS011;70623;50.886;3.892;2023-12-14T08:37:26;22.13;;;8.20;;
81137;SDS011;70623;50.886;3.892;2023-12-14T08:39:52;18.90;;;8.73;;
81137;SDS011;70623;50.886;3.892;2023-12-14T08:42:17;17.50;;;8.82;;
81137;SDS011;70623;50.886;3.892;2023-12-14T08:44:43;22.77;;;7.53;;
81137;SDS011;70623;50.886;3.892;2023-12-14T08:47:09;18.50;;;8.30;;
81137;SDS011;70623;50.886;3.892;2023-12-14T08:49:43;16.13;;;7.43;;
81137;SDS011;70623;50.886;3.892;2023-12-14T08:52:11;16.73;;;7.82;;
81137;SDS011;70623;50.886;3.892;2023-12-14T08:54:37;16.08;;;7.07;;
81137;SDS011;70623;50.886;3.892;2023-12-14T08:57:02;20.88;;;8.45;;
81137;SDS011;70623;50.886;3.892;2023-12-14T08:59:28;19.77;;;9.15;;
81137;SDS011;70623;50.886;3.892;2023-12-14T09:01:55;17.75;;;8.30;;
81137;SDS011;70623;50.886;3.892;2023-12-14T09:04:20;17.60;;;9.07;;
81137;SDS011;70623;50.886;3.892;2023-12-14T09:06:46;19.38;;;8.20;;
81137;SDS011;70623;50.886;3.892;2023-12-14T09:09:12;22.00;;;7.38;;
81137;SDS011;70623;50.886;3.892;2023-12-14T09:11:37;16.30;;;7.60;;
81137;SDS011;70623;50.886;3.892;2023-12-14T09:14:03;18.85;;;8.13;;
81137;SDS011;70623;50.886;3.892;2023-12-14T09:16:29;14.73;;;7.75;;
81137;SDS011;70623;50.886;3.892;2023-12-14T09:18:57;18.50;;;8.57;;
81137;SDS011;70623;50.886;3.892;2023-12-14T09:21:24;17.00;;;8.32;;
81137;SDS011;70623;50.886;3.892;2023-12-14T09:23:50;16.25;;;7.10;;
81137;SDS011;70623;50.886;3.892;2023-12-14T09:26:18;17.15;;;7.25;;
81137;SDS011;70623;50.886;3.892;2023-12-14T09:28:44;18.40;;;7.05;;
81137;SDS011;70623;50.886;3.892;2023-12-14T09:31:10;13.48;;;7.28;;
81137;SDS011;70623;50.886;3.892;2023-12-14T09:33:36;21.83;;;8.95;;
81137;SDS011;70623;50.886;3.892;2023-12-14T09:36:02;18.13;;;7.28;;
81137;SDS011;70623;50.886;3.892;2023-12-14T09:38:27;16.10;;;7.55;;
81137;SDS011;70623;50.886;3.892;2023-12-14T09:40:53;14.82;;;6.80;;
81137;SDS011;70623;50.886;3.892;2023-12-14T09:43:19;14.63;;;7.15;;
81137;SDS011;70623;50.886;3.892;2023-12-14T09:45:46;19.27;;;7.35;;
81137;SDS011;70623;50.886;3.892;2023-12-14T09:48:15;15.38;;;6.38;;
81137;SDS011;70623;50.886;3.892;2023-12-14T09:50:41;14.73;;;6.57;;
81137;SDS011;70623;50.886;3.892;2023-12-14T09:53:10;15.13;;;7.53;;
81137;SDS011;70623;50.886;3.892;2023-12-14T09:55:36;23.13;;;7.55;;
81137;SDS011;70623;50.886;3.892;2023-12-14T09:58:02;18.92;;;6.55;;
81137;SDS011;70623;50.886;3.892;2023-12-14T10:00:34;16.40;;;7.15;;
81137;SDS011;70623;50.886;3.892;2023-12-14T10:03:22;16.00;;;7.07;;
81137;SDS011;70623;50.886;3.892;2023-12-14T10:05:51;20.13;;;7.95;;
81137;SDS011;70623;50.886;3.892;2023-12-14T10:08:17;18.92;;;8.52;;
81137;SDS011;70623;50.886;3.892;2023-12-14T10:10:44;14.75;;;7.75;;
81137;SDS011;70623;50.886;3.892;2023-12-14T10:13:11;17.88;;;7.93;;
81137;SDS011;70623;50.886;3.892;2023-12-14T10:15:41;21.63;;;8.48;;
81137;SDS011;70623;50.886;3.892;2023-12-14T10:18:11;17.40;;;7.85;;
81137;SDS011;70623;50.886;3.892;2023-12-14T10:20:37;12.73;;;6.65;;
81137;SDS011;70623;50.886;3.892;2023-12-14T10:23:04;18.75;;;8.05;;
81137;SDS011;70623;50.886;3.892;2023-12-14T10:25:31;16.42;;;7.32;;
81137;SDS011;70623;50.886;3.892;2023-12-14T10:27:57;17.42;;;7.15;;
81137;SDS011;70623;50.886;3.892;2023-12-14T10:30:25;15.50;;;7.40;;
81137;SDS011;70623;50.886;3.892;2023-12-14T10:32:50;14.30;;;7.85;;
81137;SDS011;70623;50.886;3.892;2023-12-14T10:35:16;18.92;;;8.10;;
81137;SDS011;70623;50.886;3.892;2023-12-14T10:37:42;17.33;;;7.38;;
81137;SDS011;70623;50.886;3.892;2023-12-14T10:40:11;17.73;;;7.90;;
81137;SDS011;70623;50.886;3.892;2023-12-14T10:42:39;23.83;;;9.53;;
81137;SDS011;70623;50.886;3.892;2023-12-14T10:45:09;21.40;;;9.75;;
81137;SDS011;70623;50.886;3.892;2023-12-14T10:47:38;19.70;;;9.75;;
81137;SDS011;70623;50.886;3.892;2023-12-14T10:50:07;22.65;;;10.77;;
81137;SDS011;70623;50.886;3.892;2023-12-14T10:52:37;24.80;;;9.73;;
81137;SDS011;70623;50.886;3.892;2023-12-14T10:55:11;21.67;;;10.80;;
81137;SDS011;70623;50.886;3.892;2023-12-14T10:57:43;23.02;;;10.27;;
81137;SDS011;70623;50.886;3.892;2023-12-14T11:00:08;20.33;;;10.90;;
81137;SDS011;70623;50.886;3.892;2023-12-14T11:02:41;27.83;;;11.10;;
81137;SDS011;70623;50.886;3.892;2023-12-14T11:05:11;27.77;;;10.90;;
81137;SDS011;70623;50.886;3.892;2023-12-14T11:07:53;30.65;;;13.32;;
81137;SDS011;70623;50.886;3.892;2023-12-14T11:11:08;29.77;;;12.02;;
81137;SDS011;70623;50.886;3.892;2023-12-14T11:13:20;25.73;;;11.82;;
81137;SDS011;70623;50.886;3.892;2023-12-14T11:15:51;18.40;;;10.55;;
81137;SDS011;70623;50.886;3.892;2023-12-14T11:25:54;22.17;;;10.23;;
81137;SDS011;70623;50.886;3.892;2023-12-14T11:28:35;21.60;;;10.63;;
81137;SDS011;70623;50.886;3.892;2023-12-14T11:31:02;23.02;;;10.00;;
81137;SDS011;70623;50.886;3.892;2023-12-14T11:33:34;24.98;;;9.85;;
81137;SDS011;70623;50.886;3.892;2023-12-14T11:36:03;20.40;;;10.10;;
81137;SDS011;70623;50.886;3.892;2023-12-14T11:38:31;29.02;;;11.02;;
81137;SDS011;70623;50.886;3.892;2023-12-14T11:41:00;24.10;;;11.13;;
81137;SDS011;70623;50.886;3.892;2023-12-14T11:43:26;24.67;;;11.18;;
81137;SDS011;70623;50.886;3.892;2023-12-14T11:45:54;25.55;;;9.85;;
81137;SDS011;70623;50.886;3.892;2023-12-14T11:48:20;18.35;;;9.60;;
81137;SDS011;70623;50.886;3.892;2023-12-14T11:50:47;25.45;;;11.20;;
81137;SDS011;70623;50.886;3.892;2023-12-14T11:53:12;29.90;;;11.15;;
81137;SDS011;70623;50.886;3.892;2023-12-14T11:55:40;24.00;;;10.48;;
81137;SDS011;70623;50.886;3.892;2023-12-14T11:58:08;25.40;;;9.90;;
81137;SDS011;70623;50.886;3.892;2023-12-14T12:00:36;25.02;;;10.82;;
81137;SDS011;70623;50.886;3.892;2023-12-14T12:03:08;25.33;;;10.13;;
81137;SDS011;70623;50.886;3.892;2023-12-14T12:08:07;22.42;;;11.10;;
81137;SDS011;70623;50.886;3.892;2023-12-14T12:10:34;19.52;;;10.15;;
81137;SDS011;70623;50.886;3.892;2023-12-14T12:13:04;24.75;;;9.65;;
81137;SDS011;70623;50.886;3.892;2023-12-14T12:15:32;24.70;;;11.63;;
81137;SDS011;70623;50.886;3.892;2023-12-14T12:18:02;20.23;;;10.52;;
81137;SDS011;70623;50.886;3.892;2023-12-14T12:20:28;20.63;;;10.88;;
81137;SDS011;70623;50.886;3.892;2023-12-14T12:22:54;18.58;;;9.98;;
81137;SDS011;70623;50.886;3.892;2023-12-14T12:25:20;24.70;;;10.98;;
81137;SDS011;70623;50.886;3.892;2023-12-14T12:27:46;22.38;;;10.77;;
81137;SDS011;70623;50.886;3.892;2023-12-14T12:30:12;21.85;;;11.10;;
81137;SDS011;70623;50.886;3.892;2023-12-14T12:32:38;21.25;;;9.85;;
81137;SDS011;70623;50.886;3.892;2023-12-14T12:35:04;21.23;;;10.63;;
81137;SDS011;70623;50.886;3.892;2023-12-14T12:37:30;22.25;;;10.32;;
81137;SDS011;70623;50.886;3.892;2023-12-14T12:39:56;21.45;;;10.75;;
81137;SDS011;70623;50.886;3.892;2023-12-14T12:42:21;21.40;;;11.25;;
81137;SDS011;70623;50.886;3.892;2023-12-14T12:44:47;19.73;;;10.85;;
81137;SDS011;70623;50.886;3.892;2023-12-14T12:47:13;20.15;;;10.13;;
81137;SDS011;70623;50.886;3.892;2023-12-14T12:49:39;20.67;;;9.32;;
81137;SDS011;70623;50.886;3.892;2023-12-14T12:52:05;19.40;;;10.18;;
81137;SDS011;70623;50.886;3.892;2023-12-14T12:54:34;22.75;;;10.10;;
81137;SDS011;70623;50.886;3.892;2023-12-14T12:57:05;16.60;;;9.13;;
81137;SDS011;70623;50.886;3.892;2023-12-14T12:59:31;21.35;;;8.35;;
81137;SDS011;70623;50.886;3.892;2023-12-14T13:01:57;21.02;;;8.25;;
81137;SDS011;70623;50.886;3.892;2023-12-14T13:04:23;15.45;;;8.23;;
81137;SDS011;70623;50.886;3.892;2023-12-14T13:06:52;16.33;;;6.63;;
81137;SDS011;70623;50.886;3.892;2023-12-14T13:09:18;21.92;;;7.15;;
81137;SDS011;70623;50.886;3.892;2023-12-14T13:11:45;14.88;;;6.38;;
81137;SDS011;70623;50.886;3.892;2023-12-14T13:14:11;14.93;;;6.45;;
81137;SDS011;70623;50.886;3.892;2023-12-14T13:16:38;12.75;;;5.50;;
81137;SDS011;70623;50.886;3.892;2023-12-14T13:19:04;12.95;;;6.00;;
81137;SDS011;70623;50.886;3.892;2023-12-14T13:21:31;13.90;;;6.18;;
81137;SDS011;70623;50.886;3.892;2023-12-14T13:23:58;16.00;;;5.25;;
81137;SDS011;70623;50.886;3.892;2023-12-14T13:26:24;10.02;;;4.88;;
81137;SDS011;70623;50.886;3.892;2023-12-14T13:28:52;14.32;;;5.75;;
81137;SDS011;70623;50.886;3.892;2023-12-14T13:31:18;12.45;;;5.22;;
81137;SDS011;70623;50.886;3.892;2023-12-14T13:33:48;15.93;;;5.00;;
81137;SDS011;70623;50.886;3.892;2023-12-14T13:36:15;12.27;;;4.65;;
81137;SDS011;70623;50.886;3.892;2023-12-14T13:38:41;9.27;;;4.38;;
81137;SDS011;70623;50.886;3.892;2023-12-14T13:41:10;11.02;;;4.07;;
81137;SDS011;70623;50.886;3.892;2023-12-14T13:43:38;8.93;;;4.78;;
81137;SDS011;70623;50.886;3.892;2023-12-14T13:46:23;11.85;;;4.57;;
81137;SDS011;70623;50.886;3.892;2023-12-14T13:49:00;9.90;;;5.13;;
81137;SDS011;70623;50.886;3.892;2023-12-14T13:51:29;15.05;;;4.43;;
81137;SDS011;70623;50.886;3.892;2023-12-14T13:53:54;12.60;;;4.43;;
81137;SDS011;70623;50.886;3.892;2023-12-14T13:56:20;9.95;;;4.63;;
81137;SDS011;70623;50.886;3.892;2023-12-14T13:58:48;10.70;;;4.47;;
81137;SDS011;70623;50.886;3.892;2023-12-14T14:01:14;16.05;;;5.25;;
81137;SDS011;70623;50.886;3.892;2023-12-14T14:03:42;13.48;;;4.10;;
81137;SDS011;70623;50.886;3.892;2023-12-14T14:06:08;7.60;;;3.40;;
81137;SDS011;70623;50.886;3.892;2023-12-14T14:08:36;8.15;;;3.28;;
81137;SDS011;70623;50.886;3.892;2023-12-14T14:11:02;10.32;;;3.25;;
81137;SDS011;70623;50.886;3.892;2023-12-14T14:13:28;8.50;;;3.72;;
81137;SDS011;70623;50.886;3.892;2023-12-14T14:15:56;12.27;;;3.85;;
81137;SDS011;70623;50.886;3.892;2023-12-14T14:18:22;11.73;;;3.83;;
81137;SDS011;70623;50.886;3.892;2023-12-14T14:20:48;13.80;;;3.80;;
81137;SDS011;70623;50.886;3.892;2023-12-14T14:23:17;8.32;;;2.97;;
81137;SDS011;70623;50.886;3.892;2023-12-14T14:25:42;7.05;;;3.90;;
81137;SDS011;70623;50.886;3.892;2023-12-14T14:28:09;7.55;;;3.22;;
81137;SDS011;70623;50.886;3.892;2023-12-14T14:30:34;6.95;;;2.53;;
81137;SDS011;70623;50.886;3.892;2023-12-14T14:33:00;12.15;;;2.97;;
81137;SDS011;70623;50.886;3.892;2023-12-14T14:35:26;13.40;;;3.38;;
81137;SDS011;70623;50.886;3.892;2023-12-14T14:37:53;14.00;;;5.88;;